sensor_id;sensor_type;location;lat;lon;timestamp;P1;durP1;ratioP1;P2;durP2;ratioP2
16640;SDS011;8434;47.990;7.880;2023-09-30T00:01:24;8.10;;;3.80;;
16640;SDS011;8434;47.990;7.880;2023-09-30T00:04:09;8.20;;;2.83;;
16640;SDS011;8434;47.990;7.880;2023-09-30T00:06:56;8.90;;;2.90;;
16640;SDS011;8434;47.990;7.880;2023-09-30T00:09:42;8.07;;;3.07;;
16640;SDS011;8434;47.990;7.880;2023-09-30T00:12:27;7.97;;;3.27;;
16640;SDS011;8434;47.990;7.880;2023-09-30T00:15:13;9.37;;;3.20;;
16640;SDS011;8434;47.990;7.880;2023-09-30T00:17:58;5.50;;;2.43;;
16640;SDS011;8434;47.990;7.880;2023-09-30T00:20:45;10.07;;;3.03;;
16640;SDS011;8434;47.990;7.880;2023-09-30T00:23:32;6.67;;;2.80;;
16640;SDS011;8434;47.990;7.880;2023-09-30T00:26:17;7.63;;;3.43;;
16640;SDS011;8434;47.990;7.880;2023-09-30T00:29:04;5.07;;;2.50;;
16640;SDS011;8434;47.990;7.880;2023-09-30T00:31:50;5.90;;;2.73;;
16640;SDS011;8434;47.990;7.880;2023-09-30T00:34:35;7.03;;;2.33;;
16640;SDS011;8434;47.990;7.880;2023-09-30T00:37:21;6.50;;;2.70;;
16640;SDS011;8434;47.990;7.880;2023-09-30T00:40:08;6.53;;;2.60;;
16640;SDS011;8434;47.990;7.880;2023-09-30T00:42:55;7.43;;;3.17;;
16640;SDS011;8434;47.990;7.880;2023-09-30T00:45:41;5.37;;;2.47;;
16640;SDS011;8434;47.990;7.880;2023-09-30T00:48:27;4.83;;;2.10;;
16640;SDS011;8434;47.990;7.880;2023-09-30T00:51:13;6.93;;;2.80;;
16640;SDS011;8434;47.990;7.880;2023-09-30T00:54:01;6.57;;;2.67;;
16640;SDS011;8434;47.990;7.880;2023-09-30T00:56:48;6.17;;;2.90;;
16640;SDS011;8434;47.990;7.880;2023-09-30T00:59:35;8.73;;;3.70;;
16640;SDS011;8434;47.990;7.880;2023-09-30T01:02:21;6.80;;;3.00;;
16640;SDS011;8434;47.990;7.880;2023-09-30T01:05:07;6.43;;;3.03;;
16640;SDS011;8434;47.990;7.880;2023-09-30T01:07:53;7.47;;;3.27;;
16640;SDS011;8434;47.990;7.880;2023-09-30T01:10:39;5.20;;;2.90;;
16640;SDS011;8434;47.990;7.880;2023-09-30T01:13:32;5.03;;;2.00;;
16640;SDS011;8434;47.990;7.880;2023-09-30T01:16:18;5.07;;;2.67;;
16640;SDS011;8434;47.990;7.880;2023-09-30T01:19:04;6.73;;;2.57;;
16640;SDS011;8434;47.990;7.880;2023-09-30T01:21:51;4.40;;;2.40;;
16640;SDS011;8434;47.990;7.880;2023-09-30T01:24:38;5.03;;;2.33;;
16640;SDS011;8434;47.990;7.880;2023-09-30T01:27:25;5.67;;;2.50;;
16640;SDS011;8434;47.990;7.880;2023-09-30T01:30:11;5.77;;;2.90;;
16640;SDS011;8434;47.990;7.880;2023-09-30T01:32:57;7.00;;;2.50;;
16640;SDS011;8434;47.990;7.880;2023-09-30T01:35:42;6.10;;;2.37;;
16640;SDS011;8434;47.990;7.880;2023-09-30T01:38:30;6.23;;;1.97;;
16640;SDS011;8434;47.990;7.880;2023-09-30T01:41:15;4.73;;;1.83;;
16640;SDS011;8434;47.990;7.880;2023-09-30T01:44:01;4.53;;;2.20;;
16640;SDS011;8434;47.990;7.880;2023-09-30T01:46:47;9.40;;;2.77;;
16640;SDS011;8434;47.990;7.880;2023-09-30T01:49:32;6.30;;;2.30;;
16640;SDS011;8434;47.990;7.880;2023-09-30T01:52:18;5.73;;;2.13;;
16640;SDS011;8434;47.990;7.880;2023-09-30T01:55:05;5.77;;;2.10;;
16640;SDS011;8434;47.990;7.880;2023-09-30T01:57:51;5.40;;;2.97;;
16640;SDS011;8434;47.990;7.880;2023-09-30T02:00:36;6.80;;;3.10;;
16640;SDS011;8434;47.990;7.880;2023-09-30T02:03:21;5.23;;;2.57;;
16640;SDS011;8434;47.990;7.880;2023-09-30T02:06:07;10.70;;;3.87;;
16640;SDS011;8434;47.990;7.880;2023-09-30T02:08:52;5.63;;;2.27;;
16640;SDS011;8434;47.990;7.880;2023-09-30T02:11:39;5.43;;;2.60;;
16640;SDS011;8434;47.990;7.880;2023-09-30T02:14:25;5.40;;;2.43;;
16640;SDS011;8434;47.990;7.880;2023-09-30T02:17:11;5.87;;;2.30;;
16640;SDS011;8434;47.990;7.880;2023-09-30T02:19:57;5.57;;;2.10;;
16640;SDS011;8434;47.990;7.880;2023-09-30T02:22:43;8.57;;;2.70;;
16640;SDS011;8434;47.990;7.880;2023-09-30T02:25:30;12.87;;;3.00;;
16640;SDS011;8434;47.990;7.880;2023-09-30T02:28:17;7.03;;;2.87;;
16640;SDS011;8434;47.990;7.880;2023-09-30T02:31:03;8.70;;;2.70;;
16640;SDS011;8434;47.990;7.880;2023-09-30T02:33:48;4.50;;;2.73;;
16640;SDS011;8434;47.990;7.880;2023-09-30T02:36:33;5.37;;;2.87;;
16640;SDS011;8434;47.990;7.880;2023-09-30T02:39:20;3.73;;;2.30;;
16640;SDS011;8434;47.990;7.880;2023-09-30T02:42:05;6.90;;;2.60;;
16640;SDS011;8434;47.990;7.880;2023-09-30T02:44:52;7.17;;;3.00;;
16640;SDS011;8434;47.990;7.880;2023-09-30T02:47:38;6.67;;;2.30;;
16640;SDS011;8434;47.990;7.880;2023-09-30T02:50:23;6.37;;;2.50;;
16640;SDS011;8434;47.990;7.880;2023-09-30T02:53:09;5.87;;;2.70;;
16640;SDS011;8434;47.990;7.880;2023-09-30T02:55:54;24.17;;;3.80;;
16640;SDS011;8434;47.990;7.880;2023-09-30T02:58:40;14.67;;;3.60;;
16640;SDS011;8434;47.990;7.880;2023-09-30T03:01:27;6.37;;;3.63;;
16640;SDS011;8434;47.990;7.880;2023-09-30T03:04:12;6.97;;;3.07;;
16640;SDS011;8434;47.990;7.880;2023-09-30T03:06:58;6.17;;;2.83;;
16640;SDS011;8434;47.990;7.880;2023-09-30T03:09:43;4.70;;;2.60;;
16640;SDS011;8434;47.990;7.880;2023-09-30T03:12:29;5.77;;;2.53;;
16640;SDS011;8434;47.990;7.880;2023-09-30T03:15:15;6.47;;;2.57;;
16640;SDS011;8434;47.990;7.880;2023-09-30T03:18:02;4.93;;;2.87;;
16640;SDS011;8434;47.990;7.880;2023-09-30T03:20:48;7.00;;;2.63;;
16640;SDS011;8434;47.990;7.880;2023-09-30T03:23:34;7.07;;;2.60;;
16640;SDS011;8434;47.990;7.880;2023-09-30T03:26:20;6.33;;;2.23;;
16640;SDS011;8434;47.990;7.880;2023-09-30T03:29:05;4.73;;;2.57;;
16640;SDS011;8434;47.990;7.880;2023-09-30T03:31:51;7.13;;;2.80;;
16640;SDS011;8434;47.990;7.880;2023-09-30T03:34:38;6.93;;;2.70;;
16640;SDS011;8434;47.990;7.880;2023-09-30T03:37:29;5.07;;;2.53;;
16640;SDS011;8434;47.990;7.880;2023-09-30T03:40:15;5.30;;;2.57;;
16640;SDS011;8434;47.990;7.880;2023-09-30T03:43:02;11.37;;;2.80;;
16640;SDS011;8434;47.990;7.880;2023-09-30T03:45:49;5.33;;;2.90;;
16640;SDS011;8434;47.990;7.880;2023-09-30T03:48:34;7.23;;;2.80;;
16640;SDS011;8434;47.990;7.880;2023-09-30T03:51:24;6.40;;;3.20;;
16640;SDS011;8434;47.990;7.880;2023-09-30T03:54:09;4.60;;;2.60;;
16640;SDS011;8434;47.990;7.880;2023-09-30T03:56:55;7.03;;;2.70;;
16640;SDS011;8434;47.990;7.880;2023-09-30T03:59:40;7.43;;;3.07;;
16640;SDS011;8434;47.990;7.880;2023-09-30T04:02:26;6.17;;;3.27;;
16640;SDS011;8434;47.990;7.880;2023-09-30T04:05:11;5.57;;;2.97;;
16640;SDS011;8434;47.990;7.880;2023-09-30T04:07:59;6.60;;;2.97;;
16640;SDS011;8434;47.990;7.880;2023-09-30T04:10:45;6.17;;;2.90;;
16640;SDS011;8434;47.990;7.880;2023-09-30T04:13:30;6.27;;;2.70;;
16640;SDS011;8434;47.990;7.880;2023-09-30T04:16:17;7.43;;;2.80;;
16640;SDS011;8434;47.990;7.880;2023-09-30T04:19:03;7.20;;;3.47;;
16640;SDS011;8434;47.990;7.880;2023-09-30T04:21:48;7.17;;;2.63;;
16640;SDS011;8434;47.990;7.880;2023-09-30T04:24:35;6.07;;;2.83;;
16640;SDS011;8434;47.990;7.880;2023-09-30T04:27:21;5.77;;;2.20;;
16640;SDS011;8434;47.990;7.880;2023-09-30T04:30:06;7.97;;;3.23;;
16640;SDS011;8434;47.990;7.880;2023-09-30T04:32:52;7.23;;;3.10;;
16640;SDS011;8434;47.990;7.880;2023-09-30T04:35:38;4.70;;;3.00;;
16640;SDS011;8434;47.990;7.880;2023-09-30T04:38:23;6.80;;;2.80;;
16640;SDS011;8434;47.990;7.880;2023-09-30T04:41:11;7.33;;;3.23;;
16640;SDS011;8434;47.990;7.880;2023-09-30T04:43:56;6.03;;;2.63;;
16640;SDS011;8434;47.990;7.880;2023-09-30T04:46:42;6.57;;;3.07;;
16640;SDS011;8434;47.990;7.880;2023-09-30T04:49:29;6.57;;;2.87;;
16640;SDS011;8434;47.990;7.880;2023-09-30T04:52:15;7.77;;;2.70;;
16640;SDS011;8434;47.990;7.880;2023-09-30T04:55:00;7.30;;;3.47;;
16640;SDS011;8434;47.990;7.880;2023-09-30T04:57:49;7.03;;;2.90;;
16640;SDS011;8434;47.990;7.880;2023-09-30T05:00:34;23.50;;;3.30;;
16640;SDS011;8434;47.990;7.880;2023-09-30T05:03:19;6.57;;;2.90;;
16640;SDS011;8434;47.990;7.880;2023-09-30T05:06:05;21.30;;;4.80;;
16640;SDS011;8434;47.990;7.880;2023-09-30T05:08:51;11.67;;;3.47;;
16640;SDS011;8434;47.990;7.880;2023-09-30T05:11:37;11.00;;;2.87;;
16640;SDS011;8434;47.990;7.880;2023-09-30T05:14:25;6.30;;;2.50;;
16640;SDS011;8434;47.990;7.880;2023-09-30T05:17:13;9.10;;;3.57;;
16640;SDS011;8434;47.990;7.880;2023-09-30T05:19:58;5.73;;;3.50;;
16640;SDS011;8434;47.990;7.880;2023-09-30T05:22:44;7.43;;;3.30;;
16640;SDS011;8434;47.990;7.880;2023-09-30T05:25:30;6.00;;;3.00;;
16640;SDS011;8434;47.990;7.880;2023-09-30T05:28:15;7.77;;;3.13;;
16640;SDS011;8434;47.990;7.880;2023-09-30T05:31:02;7.57;;;3.67;;
16640;SDS011;8434;47.990;7.880;2023-09-30T05:33:47;6.43;;;2.97;;
16640;SDS011;8434;47.990;7.880;2023-09-30T05:36:33;7.60;;;3.03;;
16640;SDS011;8434;47.990;7.880;2023-09-30T05:39:18;6.97;;;3.07;;
16640;SDS011;8434;47.990;7.880;2023-09-30T05:42:04;6.83;;;3.03;;
16640;SDS011;8434;47.990;7.880;2023-09-30T05:44:50;7.40;;;2.90;;
16640;SDS011;8434;47.990;7.880;2023-09-30T05:47:38;5.87;;;2.93;;
16640;SDS011;8434;47.990;7.880;2023-09-30T05:50:24;7.37;;;2.90;;
16640;SDS011;8434;47.990;7.880;2023-09-30T05:53:10;8.77;;;3.17;;
16640;SDS011;8434;47.990;7.880;2023-09-30T05:55:55;9.30;;;3.40;;
16640;SDS011;8434;47.990;7.880;2023-09-30T05:58:41;6.30;;;3.40;;
16640;SDS011;8434;47.990;7.880;2023-09-30T06:01:26;7.33;;;3.40;;
16640;SDS011;8434;47.990;7.880;2023-09-30T06:04:13;12.03;;;3.87;;
16640;SDS011;8434;47.990;7.880;2023-09-30T06:06:59;7.60;;;3.90;;
16640;SDS011;8434;47.990;7.880;2023-09-30T06:09:44;6.53;;;3.07;;
16640;SDS011;8434;47.990;7.880;2023-09-30T06:12:31;8.33;;;3.13;;
16640;SDS011;8434;47.990;7.880;2023-09-30T06:15:17;4.97;;;3.10;;
16640;SDS011;8434;47.990;7.880;2023-09-30T06:18:05;6.03;;;3.03;;
16640;SDS011;8434;47.990;7.880;2023-09-30T06:20:52;6.70;;;3.53;;
16640;SDS011;8434;47.990;7.880;2023-09-30T06:23:38;7.17;;;3.17;;
16640;SDS011;8434;47.990;7.880;2023-09-30T06:26:23;8.23;;;3.57;;
16640;SDS011;8434;47.990;7.880;2023-09-30T06:29:12;5.20;;;2.90;;
16640;SDS011;8434;47.990;7.880;2023-09-30T06:31:58;9.03;;;2.93;;
16640;SDS011;8434;47.990;7.880;2023-09-30T06:34:43;4.63;;;2.70;;
16640;SDS011;8434;47.990;7.880;2023-09-30T06:37:30;8.13;;;3.87;;
16640;SDS011;8434;47.990;7.880;2023-09-30T06:40:15;7.17;;;3.23;;
16640;SDS011;8434;47.990;7.880;2023-09-30T06:43:01;5.93;;;3.30;;
16640;SDS011;8434;47.990;7.880;2023-09-30T06:45:46;7.27;;;3.00;;
16640;SDS011;8434;47.990;7.880;2023-09-30T06:48:33;5.60;;;2.93;;
16640;SDS011;8434;47.990;7.880;2023-09-30T06:51:18;7.83;;;3.27;;
16640;SDS011;8434;47.990;7.880;2023-09-30T06:54:05;7.20;;;3.07;;
16640;SDS011;8434;47.990;7.880;2023-09-30T06:56:52;8.63;;;2.73;;
16640;SDS011;8434;47.990;7.880;2023-09-30T06:59:37;6.67;;;3.00;;
16640;SDS011;8434;47.990;7.880;2023-09-30T07:02:23;5.10;;;2.90;;
16640;SDS011;8434;47.990;7.880;2023-09-30T07:05:08;8.27;;;4.10;;
16640;SDS011;8434;47.990;7.880;2023-09-30T07:07:54;7.27;;;3.10;;
16640;SDS011;8434;47.990;7.880;2023-09-30T07:10:40;7.43;;;4.00;;
16640;SDS011;8434;47.990;7.880;2023-09-30T07:13:26;6.67;;;3.37;;
16640;SDS011;8434;47.990;7.880;2023-09-30T07:16:11;8.33;;;4.30;;
16640;SDS011;8434;47.990;7.880;2023-09-30T07:18:56;9.47;;;4.07;;
16640;SDS011;8434;47.990;7.880;2023-09-30T07:21:42;9.73;;;4.50;;
16640;SDS011;8434;47.990;7.880;2023-09-30T07:24:27;9.60;;;4.20;;
16640;SDS011;8434;47.990;7.880;2023-09-30T07:27:14;7.87;;;4.13;;
16640;SDS011;8434;47.990;7.880;2023-09-30T07:30:00;7.97;;;3.60;;
16640;SDS011;8434;47.990;7.880;2023-09-30T07:32:46;8.03;;;3.30;;
16640;SDS011;8434;47.990;7.880;2023-09-30T07:35:32;6.17;;;2.53;;
16640;SDS011;8434;47.990;7.880;2023-09-30T07:38:17;6.50;;;2.50;;
16640;SDS011;8434;47.990;7.880;2023-09-30T07:41:03;7.93;;;3.47;;
16640;SDS011;8434;47.990;7.880;2023-09-30T07:43:50;5.77;;;2.77;;
16640;SDS011;8434;47.990;7.880;2023-09-30T07:46:35;4.77;;;2.50;;
16640;SDS011;8434;47.990;7.880;2023-09-30T07:49:21;8.33;;;3.40;;
16640;SDS011;8434;47.990;7.880;2023-09-30T07:52:08;7.73;;;3.63;;
16640;SDS011;8434;47.990;7.880;2023-09-30T07:54:54;6.83;;;3.40;;
16640;SDS011;8434;47.990;7.880;2023-09-30T07:57:40;8.40;;;3.30;;
16640;SDS011;8434;47.990;7.880;2023-09-30T08:00:27;6.13;;;2.77;;
16640;SDS011;8434;47.990;7.880;2023-09-30T08:03:13;6.97;;;3.47;;
16640;SDS011;8434;47.990;7.880;2023-09-30T08:05:59;9.13;;;3.47;;
16640;SDS011;8434;47.990;7.880;2023-09-30T08:08:44;6.83;;;2.83;;
16640;SDS011;8434;47.990;7.880;2023-09-30T08:11:30;8.13;;;3.47;;
16640;SDS011;8434;47.990;7.880;2023-09-30T08:14:17;7.53;;;3.33;;
16640;SDS011;8434;47.990;7.880;2023-09-30T08:17:04;7.60;;;3.58;;
16640;SDS011;8434;47.990;7.880;2023-09-30T08:19:49;8.00;;;3.58;;
16640;SDS011;8434;47.990;7.880;2023-09-30T08:22:35;9.57;;;3.05;;
16640;SDS011;8434;47.990;7.880;2023-09-30T08:25:20;5.75;;;2.65;;
16640;SDS011;8434;47.990;7.880;2023-09-30T08:28:06;8.60;;;3.38;;
16640;SDS011;8434;47.990;7.880;2023-09-30T08:30:53;8.23;;;3.03;;
16640;SDS011;8434;47.990;7.880;2023-09-30T08:33:44;5.75;;;2.90;;
16640;SDS011;8434;47.990;7.880;2023-09-30T08:36:30;6.63;;;3.30;;
16640;SDS011;8434;47.990;7.880;2023-09-30T08:39:16;8.68;;;3.72;;
16640;SDS011;8434;47.990;7.880;2023-09-30T08:42:01;7.30;;;3.40;;
16640;SDS011;8434;47.990;7.880;2023-09-30T08:44:47;7.82;;;3.00;;
16640;SDS011;8434;47.990;7.880;2023-09-30T08:47:32;7.15;;;3.30;;
16640;SDS011;8434;47.990;7.880;2023-09-30T08:50:20;6.40;;;2.75;;
16640;SDS011;8434;47.990;7.880;2023-09-30T08:53:06;6.88;;;3.35;;
16640;SDS011;8434;47.990;7.880;2023-09-30T08:55:54;7.25;;;3.65;;
16640;SDS011;8434;47.990;7.880;2023-09-30T08:58:39;5.97;;;2.92;;
16640;SDS011;8434;47.990;7.880;2023-09-30T09:01:25;7.93;;;3.60;;
16640;SDS011;8434;47.990;7.880;2023-09-30T09:04:11;7.13;;;3.15;;
16640;SDS011;8434;47.990;7.880;2023-09-30T09:07:00;8.00;;;3.47;;
16640;SDS011;8434;47.990;7.880;2023-09-30T09:12:54;8.45;;;3.25;;
16640;SDS011;8434;47.990;7.880;2023-09-30T09:15:39;9.13;;;3.25;;
16640;SDS011;8434;47.990;7.880;2023-09-30T09:18:31;7.55;;;3.03;;
16640;SDS011;8434;47.990;7.880;2023-09-30T09:21:17;5.07;;;2.50;;
16640;SDS011;8434;47.990;7.880;2023-09-30T09:24:05;5.07;;;2.33;;
16640;SDS011;8434;47.990;7.880;2023-09-30T09:26:50;5.57;;;2.75;;
16640;SDS011;8434;47.990;7.880;2023-09-30T09:29:36;5.90;;;2.83;;
16640;SDS011;8434;47.990;7.880;2023-09-30T09:32:21;3.42;;;2.10;;
16640;SDS011;8434;47.990;7.880;2023-09-30T09:35:07;8.05;;;3.10;;
16640;SDS011;8434;47.990;7.880;2023-09-30T09:37:56;5.32;;;2.00;;
16640;SDS011;8434;47.990;7.880;2023-09-30T09:40:43;5.18;;;2.63;;
16640;SDS011;8434;47.990;7.880;2023-09-30T09:43:29;5.93;;;2.97;;
16640;SDS011;8434;47.990;7.880;2023-09-30T09:46:16;5.40;;;2.67;;
16640;SDS011;8434;47.990;7.880;2023-09-30T09:49:02;5.35;;;2.50;;
16640;SDS011;8434;47.990;7.880;2023-09-30T09:51:48;7.05;;;2.95;;
16640;SDS011;8434;47.990;7.880;2023-09-30T09:54:34;8.95;;;2.85;;
16640;SDS011;8434;47.990;7.880;2023-09-30T09:57:20;5.75;;;2.60;;
16640;SDS011;8434;47.990;7.880;2023-09-30T10:00:07;5.22;;;2.58;;
16640;SDS011;8434;47.990;7.880;2023-09-30T10:02:58;7.75;;;3.05;;
16640;SDS011;8434;47.990;7.880;2023-09-30T10:05:44;4.88;;;2.53;;
16640;SDS011;8434;47.990;7.880;2023-09-30T10:08:31;6.60;;;2.65;;
16640;SDS011;8434;47.990;7.880;2023-09-30T10:11:18;5.72;;;2.83;;
16640;SDS011;8434;47.990;7.880;2023-09-30T10:14:05;5.05;;;2.72;;
16640;SDS011;8434;47.990;7.880;2023-09-30T10:16:58;3.72;;;2.00;;
16640;SDS011;8434;47.990;7.880;2023-09-30T10:20:03;6.05;;;2.20;;
16640;SDS011;8434;47.990;7.880;2023-09-30T10:22:54;4.68;;;2.65;;
16640;SDS011;8434;47.990;7.880;2023-09-30T10:26:15;5.10;;;2.88;;
16640;SDS011;8434;47.990;7.880;2023-09-30T10:29:09;4.97;;;2.53;;
16640;SDS011;8434;47.990;7.880;2023-09-30T10:31:55;5.80;;;2.75;;
16640;SDS011;8434;47.990;7.880;2023-09-30T10:34:46;6.45;;;2.88;;
16640;SDS011;8434;47.990;7.880;2023-09-30T10:37:32;5.05;;;2.70;;
16640;SDS011;8434;47.990;7.880;2023-09-30T10:40:25;5.65;;;2.72;;
16640;SDS011;8434;47.990;7.880;2023-09-30T10:43:20;5.03;;;2.22;;
16640;SDS011;8434;47.990;7.880;2023-09-30T10:46:33;5.68;;;2.75;;
16640;SDS011;8434;47.990;7.880;2023-09-30T10:49:31;5.80;;;2.55;;
16640;SDS011;8434;47.990;7.880;2023-09-30T10:52:21;5.82;;;3.03;;
16640;SDS011;8434;47.990;7.880;2023-09-30T10:55:07;6.00;;;2.85;;
16640;SDS011;8434;47.990;7.880;2023-09-30T10:57:52;6.25;;;2.80;;
16640;SDS011;8434;47.990;7.880;2023-09-30T11:00:37;7.20;;;3.08;;
16640;SDS011;8434;47.990;7.880;2023-09-30T11:03:24;6.38;;;3.00;;
16640;SDS011;8434;47.990;7.880;2023-09-30T11:06:11;9.00;;;3.40;;
16640;SDS011;8434;47.990;7.880;2023-09-30T11:08:58;6.65;;;3.28;;
16640;SDS011;8434;47.990;7.880;2023-09-30T11:11:44;6.10;;;2.80;;
16640;SDS011;8434;47.990;7.880;2023-09-30T11:14:32;8.38;;;3.95;;
16640;SDS011;8434;47.990;7.880;2023-09-30T11:17:18;5.72;;;3.30;;
16640;SDS011;8434;47.990;7.880;2023-09-30T11:20:09;7.57;;;3.28;;
16640;SDS011;8434;47.990;7.880;2023-09-30T11:22:54;7.28;;;3.58;;
16640;SDS011;8434;47.990;7.880;2023-09-30T11:25:40;8.75;;;4.30;;
16640;SDS011;8434;47.990;7.880;2023-09-30T11:28:25;8.02;;;3.60;;
16640;SDS011;8434;47.990;7.880;2023-09-30T11:31:20;8.48;;;3.58;;
16640;SDS011;8434;47.990;7.880;2023-09-30T11:34:06;7.90;;;3.65;;
16640;SDS011;8434;47.990;7.880;2023-09-30T11:36:53;8.48;;;4.13;;
16640;SDS011;8434;47.990;7.880;2023-09-30T11:39:38;10.27;;;4.97;;
16640;SDS011;8434;47.990;7.880;2023-09-30T11:42:24;8.18;;;3.97;;
16640;SDS011;8434;47.990;7.880;2023-09-30T11:45:19;8.98;;;4.20;;
16640;SDS011;8434;47.990;7.880;2023-09-30T11:48:17;9.05;;;4.55;;
16640;SDS011;8434;47.990;7.880;2023-09-30T11:51:03;9.38;;;4.47;;
16640;SDS011;8434;47.990;7.880;2023-09-30T11:53:50;10.13;;;4.68;;
16640;SDS011;8434;47.990;7.880;2023-09-30T11:56:37;11.18;;;5.47;;
16640;SDS011;8434;47.990;7.880;2023-09-30T11:59:22;11.57;;;4.70;;
16640;SDS011;8434;47.990;7.880;2023-09-30T12:02:08;10.52;;;4.05;;
16640;SDS011;8434;47.990;7.880;2023-09-30T12:04:53;9.90;;;4.43;;
16640;SDS011;8434;47.990;7.880;2023-09-30T12:07:39;11.45;;;4.93;;
16640;SDS011;8434;47.990;7.880;2023-09-30T12:10:27;10.90;;;4.53;;
16640;SDS011;8434;47.990;7.880;2023-09-30T12:13:12;10.32;;;4.53;;
16640;SDS011;8434;47.990;7.880;2023-09-30T12:15:59;8.85;;;4.13;;
16640;SDS011;8434;47.990;7.880;2023-09-30T12:18:44;7.55;;;4.15;;
16640;SDS011;8434;47.990;7.880;2023-09-30T12:21:30;9.85;;;4.65;;
16640;SDS011;8434;47.990;7.880;2023-09-30T12:24:17;10.10;;;4.57;;
16640;SDS011;8434;47.990;7.880;2023-09-30T12:27:07;8.38;;;4.13;;
16640;SDS011;8434;47.990;7.880;2023-09-30T12:29:52;7.10;;;3.92;;
16640;SDS011;8434;47.990;7.880;2023-09-30T12:32:38;9.80;;;4.35;;
16640;SDS011;8434;47.990;7.880;2023-09-30T12:35:23;8.18;;;4.22;;
16640;SDS011;8434;47.990;7.880;2023-09-30T12:38:09;10.05;;;4.47;;
16640;SDS011;8434;47.990;7.880;2023-09-30T12:40:55;13.70;;;4.78;;
16640;SDS011;8434;47.990;7.880;2023-09-30T12:43:41;8.65;;;4.18;;
16640;SDS011;8434;47.990;7.880;2023-09-30T12:46:26;12.85;;;5.40;;
16640;SDS011;8434;47.990;7.880;2023-09-30T12:49:12;7.97;;;4.30;;
16640;SDS011;8434;47.990;7.880;2023-09-30T12:51:58;10.68;;;5.30;;
16640;SDS011;8434;47.990;7.880;2023-09-30T12:54:43;9.43;;;4.75;;
16640;SDS011;8434;47.990;7.880;2023-09-30T12:57:29;10.90;;;4.78;;
16640;SDS011;8434;47.990;7.880;2023-09-30T13:00:16;8.80;;;4.63;;
16640;SDS011;8434;47.990;7.880;2023-09-30T13:03:03;10.75;;;5.35;;
16640;SDS011;8434;47.990;7.880;2023-09-30T13:05:49;10.45;;;4.65;;
16640;SDS011;8434;47.990;7.880;2023-09-30T13:08:34;10.15;;;4.68;;
16640;SDS011;8434;47.990;7.880;2023-09-30T13:11:20;10.35;;;4.63;;
16640;SDS011;8434;47.990;7.880;2023-09-30T13:14:06;11.27;;;5.07;;
16640;SDS011;8434;47.990;7.880;2023-09-30T13:16:53;10.70;;;5.32;;
16640;SDS011;8434;47.990;7.880;2023-09-30T13:19:38;11.57;;;5.15;;
16640;SDS011;8434;47.990;7.880;2023-09-30T13:22:23;12.15;;;5.72;;
16640;SDS011;8434;47.990;7.880;2023-09-30T13:25:09;13.43;;;6.25;;
16640;SDS011;8434;47.990;7.880;2023-09-30T13:27:56;12.07;;;5.53;;
16640;SDS011;8434;47.990;7.880;2023-09-30T13:30:41;9.77;;;4.40;;
16640;SDS011;8434;47.990;7.880;2023-09-30T13:33:29;12.38;;;5.47;;
16640;SDS011;8434;47.990;7.880;2023-09-30T13:36:15;12.30;;;5.70;;
16640;SDS011;8434;47.990;7.880;2023-09-30T13:39:00;12.63;;;6.30;;
16640;SDS011;8434;47.990;7.880;2023-09-30T13:41:49;13.07;;;5.80;;
16640;SDS011;8434;47.990;7.880;2023-09-30T13:44:34;11.43;;;4.82;;
16640;SDS011;8434;47.990;7.880;2023-09-30T13:47:20;10.88;;;5.50;;
16640;SDS011;8434;47.990;7.880;2023-09-30T13:50:08;10.70;;;5.38;;
16640;SDS011;8434;47.990;7.880;2023-09-30T13:52:53;11.77;;;4.97;;
16640;SDS011;8434;47.990;7.880;2023-09-30T13:55:39;11.32;;;5.28;;
16640;SDS011;8434;47.990;7.880;2023-09-30T13:58:24;9.48;;;4.75;;
16640;SDS011;8434;47.990;7.880;2023-09-30T14:01:09;14.45;;;6.15;;
16640;SDS011;8434;47.990;7.880;2023-09-30T14:03:56;10.60;;;5.10;;
16640;SDS011;8434;47.990;7.880;2023-09-30T14:06:43;10.13;;;5.15;;
16640;SDS011;8434;47.990;7.880;2023-09-30T14:09:30;8.98;;;4.97;;
16640;SDS011;8434;47.990;7.880;2023-09-30T14:12:16;11.88;;;5.85;;
16640;SDS011;8434;47.990;7.880;2023-09-30T14:15:02;10.75;;;5.07;;
16640;SDS011;8434;47.990;7.880;2023-09-30T14:17:49;9.07;;;5.03;;
16640;SDS011;8434;47.990;7.880;2023-09-30T14:20:34;12.30;;;4.78;;
16640;SDS011;8434;47.990;7.880;2023-09-30T14:23:21;13.73;;;6.32;;
16640;SDS011;8434;47.990;7.880;2023-09-30T14:26:08;10.50;;;5.30;;
16640;SDS011;8434;47.990;7.880;2023-09-30T14:28:54;10.40;;;5.72;;
16640;SDS011;8434;47.990;7.880;2023-09-30T14:31:40;11.07;;;6.22;;
16640;SDS011;8434;47.990;7.880;2023-09-30T14:34:26;12.55;;;6.03;;
16640;SDS011;8434;47.990;7.880;2023-09-30T14:37:11;13.40;;;5.85;;
16640;SDS011;8434;47.990;7.880;2023-09-30T14:39:58;9.48;;;5.13;;
16640;SDS011;8434;47.990;7.880;2023-09-30T14:42:43;12.63;;;6.13;;
16640;SDS011;8434;47.990;7.880;2023-09-30T14:45:29;7.75;;;4.65;;
16640;SDS011;8434;47.990;7.880;2023-09-30T14:48:15;11.20;;;6.22;;
16640;SDS011;8434;47.990;7.880;2023-09-30T14:51:01;10.48;;;5.40;;
16640;SDS011;8434;47.990;7.880;2023-09-30T14:53:48;12.57;;;6.03;;
16640;SDS011;8434;47.990;7.880;2023-09-30T14:56:35;10.05;;;5.00;;
16640;SDS011;8434;47.990;7.880;2023-09-30T14:59:21;12.38;;;6.07;;
16640;SDS011;8434;47.990;7.880;2023-09-30T15:02:06;12.18;;;6.43;;
16640;SDS011;8434;47.990;7.880;2023-09-30T15:04:53;12.90;;;5.50;;
16640;SDS011;8434;47.990;7.880;2023-09-30T15:07:38;11.07;;;5.50;;
16640;SDS011;8434;47.990;7.880;2023-09-30T15:10:24;13.63;;;6.07;;
16640;SDS011;8434;47.990;7.880;2023-09-30T15:13:10;12.32;;;5.60;;
16640;SDS011;8434;47.990;7.880;2023-09-30T15:15:56;13.13;;;5.30;;
16640;SDS011;8434;47.990;7.880;2023-09-30T15:18:41;12.85;;;6.10;;
16640;SDS011;8434;47.990;7.880;2023-09-30T15:21:27;12.75;;;6.03;;
16640;SDS011;8434;47.990;7.880;2023-09-30T15:24:13;10.02;;;5.38;;
16640;SDS011;8434;47.990;7.880;2023-09-30T15:26:58;10.13;;;5.28;;
16640;SDS011;8434;47.990;7.880;2023-09-30T15:29:45;12.95;;;5.72;;
16640;SDS011;8434;47.990;7.880;2023-09-30T15:32:30;9.55;;;5.05;;
16640;SDS011;8434;47.990;7.880;2023-09-30T15:35:16;13.32;;;5.80;;
16640;SDS011;8434;47.990;7.880;2023-09-30T15:38:01;11.80;;;5.13;;
16640;SDS011;8434;47.990;7.880;2023-09-30T15:40:50;13.30;;;6.53;;
16640;SDS011;8434;47.990;7.880;2023-09-30T15:43:35;9.93;;;5.03;;
16640;SDS011;8434;47.990;7.880;2023-09-30T15:46:22;12.40;;;5.70;;
16640;SDS011;8434;47.990;7.880;2023-09-30T15:49:07;14.50;;;6.00;;
16640;SDS011;8434;47.990;7.880;2023-09-30T15:51:53;11.98;;;5.47;;
16640;SDS011;8434;47.990;7.880;2023-09-30T15:54:42;11.05;;;5.30;;
16640;SDS011;8434;47.990;7.880;2023-09-30T15:57:27;10.77;;;5.97;;
16640;SDS011;8434;47.990;7.880;2023-09-30T16:00:13;13.40;;;6.53;;
16640;SDS011;8434;47.990;7.880;2023-09-30T16:03:00;10.05;;;4.80;;
16640;SDS011;8434;47.990;7.880;2023-09-30T16:05:46;13.13;;;5.90;;
16640;SDS011;8434;47.990;7.880;2023-09-30T16:08:31;11.90;;;5.63;;
16640;SDS011;8434;47.990;7.880;2023-09-30T16:11:20;10.77;;;5.30;;
16640;SDS011;8434;47.990;7.880;2023-09-30T16:14:08;12.30;;;5.38;;
16640;SDS011;8434;47.990;7.880;2023-09-30T16:16:54;11.30;;;6.13;;
16640;SDS011;8434;47.990;7.880;2023-09-30T16:19:41;9.53;;;4.93;;
16640;SDS011;8434;47.990;7.880;2023-09-30T16:22:27;11.17;;;6.00;;
16640;SDS011;8434;47.990;7.880;2023-09-30T16:25:12;12.47;;;5.27;;
16640;SDS011;8434;47.990;7.880;2023-09-30T16:27:58;11.77;;;5.77;;
16640;SDS011;8434;47.990;7.880;2023-09-30T16:30:43;14.43;;;5.97;;
16640;SDS011;8434;47.990;7.880;2023-09-30T16:33:32;11.37;;;5.40;;
16640;SDS011;8434;47.990;7.880;2023-09-30T16:36:19;11.70;;;5.70;;
16640;SDS011;8434;47.990;7.880;2023-09-30T16:39:04;11.07;;;5.70;;
16640;SDS011;8434;47.990;7.880;2023-09-30T16:41:51;12.67;;;5.83;;
16640;SDS011;8434;47.990;7.880;2023-09-30T16:44:37;11.57;;;5.77;;
16640;SDS011;8434;47.990;7.880;2023-09-30T16:47:22;11.13;;;5.10;;
16640;SDS011;8434;47.990;7.880;2023-09-30T16:50:08;12.83;;;6.93;;
16640;SDS011;8434;47.990;7.880;2023-09-30T16:52:55;14.90;;;7.30;;
16640;SDS011;8434;47.990;7.880;2023-09-30T16:55:41;12.27;;;6.80;;
16640;SDS011;8434;47.990;7.880;2023-09-30T16:58:27;20.03;;;7.63;;